sensor_id;sensor_type;location;lat;lon;timestamp;P1;durP1;ratioP1;P2;durP2;ratioP2
40951;SDS011;26682;51.660;19.338;2022-09-09T00:00:46;11.27;;;9.25;;
40951;SDS011;26682;51.660;19.338;2022-09-09T00:03:02;15.75;;;9.65;;
40951;SDS011;26682;51.660;19.338;2022-09-09T00:11:03;13.98;;;9.95;;
40951;SDS011;26682;51.660;19.338;2022-09-09T00:12:56;13.20;;;9.90;;
40951;SDS011;26682;51.660;19.338;2022-09-09T00:16:49;11.77;;;9.65;;
40951;SDS011;26682;51.660;19.338;2022-09-09T00:18:55;13.07;;;9.85;;
40951;SDS011;26682;51.660;19.338;2022-09-09T00:21:23;11.18;;;10.00;;
40951;SDS011;26682;51.660;19.338;2022-09-09T00:23:21;15.27;;;10.73;;
40951;SDS011;26682;51.660;19.338;2022-09-09T00:25:12;14.77;;;10.52;;
40951;SDS011;26682;51.660;19.338;2022-09-09T00:31:39;12.60;;;9.77;;
40951;SDS011;26682;51.660;19.338;2022-09-09T00:33:25;12.73;;;9.95;;
40951;SDS011;26682;51.660;19.338;2022-09-09T00:35:17;14.02;;;10.63;;
40951;SDS011;26682;51.660;19.338;2022-09-09T00:37:07;13.73;;;10.43;;
40951;SDS011;26682;51.660;19.338;2022-09-09T00:38:59;12.95;;;10.88;;
40951;SDS011;26682;51.660;19.338;2022-09-09T00:41:04;16.15;;;10.43;;
40951;SDS011;26682;51.660;19.338;2022-09-09T00:43:28;14.98;;;10.13;;
40951;SDS011;26682;51.660;19.338;2022-09-09T00:49:35;11.90;;;10.20;;
40951;SDS011;26682;51.660;19.338;2022-09-09T00:51:42;13.55;;;10.77;;
40951;SDS011;26682;51.660;19.338;2022-09-09T00:55:54;14.70;;;11.13;;
40951;SDS011;26682;51.660;19.338;2022-09-09T00:57:48;14.60;;;10.90;;
40951;SDS011;26682;51.660;19.338;2022-09-09T01:02:09;15.18;;;11.00;;
40951;SDS011;26682;51.660;19.338;2022-09-09T01:04:21;12.88;;;9.93;;
40951;SDS011;26682;51.660;19.338;2022-09-09T01:06:21;14.10;;;11.15;;
40951;SDS011;26682;51.660;19.338;2022-09-09T01:10:11;16.42;;;11.95;;
40951;SDS011;26682;51.660;19.338;2022-09-09T01:12:15;13.90;;;11.82;;
40951;SDS011;26682;51.660;19.338;2022-09-09T01:14:51;14.10;;;11.50;;
40951;SDS011;26682;51.660;19.338;2022-09-09T01:18:09;12.52;;;11.20;;
40951;SDS011;26682;51.660;19.338;2022-09-09T01:20:12;15.90;;;11.38;;
40951;SDS011;26682;51.660;19.338;2022-09-09T01:24:19;18.63;;;12.50;;
40951;SDS011;26682;51.660;19.338;2022-09-09T01:26:44;14.73;;;11.38;;
40951;SDS011;26682;51.660;19.338;2022-09-09T01:28:44;18.33;;;12.43;;
40951;SDS011;26682;51.660;19.338;2022-09-09T01:30:37;13.80;;;12.13;;
40951;SDS011;26682;51.660;19.338;2022-09-09T01:32:38;16.08;;;12.30;;
40951;SDS011;26682;51.660;19.338;2022-09-09T01:34:39;16.95;;;11.75;;
40951;SDS011;26682;51.660;19.338;2022-09-09T01:36:34;16.98;;;12.70;;
40951;SDS011;26682;51.660;19.338;2022-09-09T01:38:26;15.98;;;12.40;;
40951;SDS011;26682;51.660;19.338;2022-09-09T01:40:15;15.15;;;12.63;;
40951;SDS011;26682;51.660;19.338;2022-09-09T01:42:01;14.55;;;12.60;;
40951;SDS011;26682;51.660;19.338;2022-09-09T01:43:48;16.60;;;12.80;;
40951;SDS011;26682;51.660;19.338;2022-09-09T01:45:36;15.43;;;12.55;;
40951;SDS011;26682;51.660;19.338;2022-09-09T01:47:23;15.50;;;12.68;;
40951;SDS011;26682;51.660;19.338;2022-09-09T01:49:20;14.75;;;12.32;;
40951;SDS011;26682;51.660;19.338;2022-09-09T01:51:07;15.40;;;12.98;;
40951;SDS011;26682;51.660;19.338;2022-09-09T01:52:55;14.75;;;12.48;;
40951;SDS011;26682;51.660;19.338;2022-09-09T01:54:46;17.42;;;13.25;;
40951;SDS011;26682;51.660;19.338;2022-09-09T02:03:27;18.35;;;13.13;;
40951;SDS011;26682;51.660;19.338;2022-09-09T02:09:21;15.88;;;13.52;;
40951;SDS011;26682;51.660;19.338;2022-09-09T02:11:13;15.50;;;13.32;;
40951;SDS011;26682;51.660;19.338;2022-09-09T02:13:05;16.17;;;13.40;;
40951;SDS011;26682;51.660;19.338;2022-09-09T02:15:02;17.45;;;12.95;;
40951;SDS011;26682;51.660;19.338;2022-09-09T02:17:10;18.17;;;14.07;;
40951;SDS011;26682;51.660;19.338;2022-09-09T02:19:23;19.55;;;13.60;;
40951;SDS011;26682;51.660;19.338;2022-09-09T02:21:34;17.30;;;13.52;;
40951;SDS011;26682;51.660;19.338;2022-09-09T02:23:21;19.70;;;13.32;;
40951;SDS011;26682;51.660;19.338;2022-09-09T02:25:12;20.92;;;13.98;;
40951;SDS011;26682;51.660;19.338;2022-09-09T02:27:03;18.27;;;14.85;;
40951;SDS011;26682;51.660;19.338;2022-09-09T02:28:54;16.55;;;14.15;;
40951;SDS011;26682;51.660;19.338;2022-09-09T02:30:43;15.90;;;13.75;;
40951;SDS011;26682;51.660;19.338;2022-09-09T02:32:32;19.80;;;13.82;;
40951;SDS011;26682;51.660;19.338;2022-09-09T02:34:23;16.25;;;13.75;;
40951;SDS011;26682;51.660;19.338;2022-09-09T02:36:12;16.35;;;14.00;;
40951;SDS011;26682;51.660;19.338;2022-09-09T02:38:04;17.30;;;14.32;;
40951;SDS011;26682;51.660;19.338;2022-09-09T02:39:54;16.75;;;14.10;;
40951;SDS011;26682;51.660;19.338;2022-09-09T02:41:41;17.15;;;14.25;;
40951;SDS011;26682;51.660;19.338;2022-09-09T02:43:31;16.20;;;13.95;;
40951;SDS011;26682;51.660;19.338;2022-09-09T02:45:18;17.60;;;15.27;;
40951;SDS011;26682;51.660;19.338;2022-09-09T02:49:34;16.67;;;14.43;;
40951;SDS011;26682;51.660;19.338;2022-09-09T02:51:32;16.65;;;14.45;;
40951;SDS011;26682;51.660;19.338;2022-09-09T02:53:39;17.35;;;14.73;;
40951;SDS011;26682;51.660;19.338;2022-09-09T02:55:35;16.80;;;15.07;;
40951;SDS011;26682;51.660;19.338;2022-09-09T02:57:46;18.30;;;14.70;;
40951;SDS011;26682;51.660;19.338;2022-09-09T02:59:36;19.60;;;15.30;;
40951;SDS011;26682;51.660;19.338;2022-09-09T03:01:22;20.80;;;15.67;;
40951;SDS011;26682;51.660;19.338;2022-09-09T03:03:08;19.48;;;15.57;;
40951;SDS011;26682;51.660;19.338;2022-09-09T03:04:56;19.17;;;14.82;;
40951;SDS011;26682;51.660;19.338;2022-09-09T03:06:42;20.00;;;15.68;;
40951;SDS011;26682;51.660;19.338;2022-09-09T03:08:36;17.30;;;15.48;;
40951;SDS011;26682;51.660;19.338;2022-09-09T03:10:23;19.55;;;14.68;;
40951;SDS011;26682;51.660;19.338;2022-09-09T03:12:09;17.45;;;15.15;;
40951;SDS011;26682;51.660;19.338;2022-09-09T03:13:57;20.40;;;16.85;;
40951;SDS011;26682;51.660;19.338;2022-09-09T03:17:35;19.23;;;15.50;;
40951;SDS011;26682;51.660;19.338;2022-09-09T03:19:21;20.77;;;15.55;;
40951;SDS011;26682;51.660;19.338;2022-09-09T03:21:09;18.50;;;15.75;;
40951;SDS011;26682;51.660;19.338;2022-09-09T03:22:57;18.27;;;15.57;;
40951;SDS011;26682;51.660;19.338;2022-09-09T03:24:44;18.58;;;16.27;;
40951;SDS011;26682;51.660;19.338;2022-09-09T03:26:32;20.48;;;16.65;;
40951;SDS011;26682;51.660;19.338;2022-09-09T03:28:19;20.30;;;16.77;;
40951;SDS011;26682;51.660;19.338;2022-09-09T03:30:07;19.35;;;17.35;;
40951;SDS011;26682;51.660;19.338;2022-09-09T03:31:53;18.80;;;16.33;;
40951;SDS011;26682;51.660;19.338;2022-09-09T03:33:40;19.50;;;16.08;;
40951;SDS011;26682;51.660;19.338;2022-09-09T03:35:27;19.08;;;16.90;;
40951;SDS011;26682;51.660;19.338;2022-09-09T03:37:15;21.98;;;16.30;;
40951;SDS011;26682;51.660;19.338;2022-09-09T03:39:02;20.45;;;16.38;;
40951;SDS011;26682;51.660;19.338;2022-09-09T03:40:50;20.08;;;15.73;;
40951;SDS011;26682;51.660;19.338;2022-09-09T03:42:41;20.00;;;17.25;;
40951;SDS011;26682;51.660;19.338;2022-09-09T03:44:27;25.27;;;17.25;;
40951;SDS011;26682;51.660;19.338;2022-09-09T03:46:14;23.10;;;17.20;;
40951;SDS011;26682;51.660;19.338;2022-09-09T03:48:00;27.23;;;19.17;;
40951;SDS011;26682;51.660;19.338;2022-09-09T03:49:46;37.75;;;19.80;;
40951;SDS011;26682;51.660;19.338;2022-09-09T03:51:33;33.43;;;19.40;;
40951;SDS011;26682;51.660;19.338;2022-09-09T03:53:22;48.13;;;20.20;;
40951;SDS011;26682;51.660;19.338;2022-09-09T03:55:11;61.20;;;23.05;;
40951;SDS011;26682;51.660;19.338;2022-09-09T03:56:56;34.15;;;21.48;;
40951;SDS011;26682;51.660;19.338;2022-09-09T03:58:43;62.50;;;24.42;;
40951;SDS011;26682;51.660;19.338;2022-09-09T04:00:30;80.47;;;24.02;;
40951;SDS011;26682;51.660;19.338;2022-09-09T04:02:17;137.10;;;25.17;;
40951;SDS011;26682;51.660;19.338;2022-09-09T04:04:03;74.35;;;24.77;;
40951;SDS011;26682;51.660;19.338;2022-09-09T04:05:53;76.68;;;24.60;;
40951;SDS011;26682;51.660;19.338;2022-09-09T04:07:41;101.13;;;24.48;;
40951;SDS011;26682;51.660;19.338;2022-09-09T04:09:28;118.13;;;34.33;;
40951;SDS011;26682;51.660;19.338;2022-09-09T04:11:15;201.30;;;42.85;;
40951;SDS011;26682;51.660;19.338;2022-09-09T04:13:03;166.80;;;39.90;;
40951;SDS011;26682;51.660;19.338;2022-09-09T04:14:51;314.80;;;56.83;;
40951;SDS011;26682;51.660;19.338;2022-09-09T04:16:37;342.98;;;83.93;;
40951;SDS011;26682;51.660;19.338;2022-09-09T04:18:25;452.95;;;114.72;;
40951;SDS011;26682;51.660;19.338;2022-09-09T04:20:13;297.75;;;102.97;;
40951;SDS011;26682;51.660;19.338;2022-09-09T04:21:59;247.18;;;114.13;;
40951;SDS011;26682;51.660;19.338;2022-09-09T04:23:45;296.42;;;113.80;;
40951;SDS011;26682;51.660;19.338;2022-09-09T04:25:32;219.63;;;90.45;;
40951;SDS011;26682;51.660;19.338;2022-09-09T04:27:20;185.65;;;51.63;;
40951;SDS011;26682;51.660;19.338;2022-09-09T04:29:07;136.25;;;41.85;;
40951;SDS011;26682;51.660;19.338;2022-09-09T04:30:54;153.50;;;40.60;;
40951;SDS011;26682;51.660;19.338;2022-09-09T04:32:42;182.13;;;38.33;;
40951;SDS011;26682;51.660;19.338;2022-09-09T04:34:28;186.52;;;54.33;;
40951;SDS011;26682;51.660;19.338;2022-09-09T04:36:15;199.98;;;47.10;;
40951;SDS011;26682;51.660;19.338;2022-09-09T04:38:02;277.63;;;66.40;;
40951;SDS011;26682;51.660;19.338;2022-09-09T04:41:35;149.23;;;42.42;;
40951;SDS011;26682;51.660;19.338;2022-09-09T04:43:23;152.43;;;37.58;;
40951;SDS011;26682;51.660;19.338;2022-09-09T04:45:11;145.10;;;37.17;;
40951;SDS011;26682;51.660;19.338;2022-09-09T04:46:59;98.38;;;33.35;;
40951;SDS011;26682;51.660;19.338;2022-09-09T04:48:45;123.88;;;37.80;;
40951;SDS011;26682;51.660;19.338;2022-09-09T04:50:35;158.68;;;37.28;;
40951;SDS011;26682;51.660;19.338;2022-09-09T04:52:21;170.88;;;37.17;;
40951;SDS011;26682;51.660;19.338;2022-09-09T04:54:08;135.27;;;47.78;;
40951;SDS011;26682;51.660;19.338;2022-09-09T04:56:02;219.20;;;45.20;;
40951;SDS011;26682;51.660;19.338;2022-09-09T04:57:57;159.52;;;37.70;;
40951;SDS011;26682;51.660;19.338;2022-09-09T04:59:48;155.38;;;41.10;;
40951;SDS011;26682;51.660;19.338;2022-09-09T05:01:34;111.53;;;40.47;;
40951;SDS011;26682;51.660;19.338;2022-09-09T05:03:24;111.82;;;40.95;;
40951;SDS011;26682;51.660;19.338;2022-09-09T05:05:10;99.45;;;42.53;;
40951;SDS011;26682;51.660;19.338;2022-09-09T05:06:57;92.45;;;38.22;;
40951;SDS011;26682;51.660;19.338;2022-09-09T05:08:44;130.65;;;41.90;;
40951;SDS011;26682;51.660;19.338;2022-09-09T05:10:33;98.72;;;39.80;;
40951;SDS011;26682;51.660;19.338;2022-09-09T05:12:19;109.50;;;47.67;;
40951;SDS011;26682;51.660;19.338;2022-09-09T05:14:10;132.70;;;39.92;;
40951;SDS011;26682;51.660;19.338;2022-09-09T05:15:57;86.95;;;37.08;;
40951;SDS011;26682;51.660;19.338;2022-09-09T05:17:44;113.85;;;36.58;;
40951;SDS011;26682;51.660;19.338;2022-09-09T05:19:31;93.80;;;35.47;;
40951;SDS011;26682;51.660;19.338;2022-09-09T05:21:17;84.20;;;35.70;;
40951;SDS011;26682;51.660;19.338;2022-09-09T05:23:05;89.85;;;35.38;;
40951;SDS011;26682;51.660;19.338;2022-09-09T05:24:52;74.63;;;35.80;;
40951;SDS011;26682;51.660;19.338;2022-09-09T05:26:38;68.82;;;35.25;;
40951;SDS011;26682;51.660;19.338;2022-09-09T05:28:28;71.90;;;35.35;;
40951;SDS011;26682;51.660;19.338;2022-09-09T05:30:16;67.78;;;34.53;;
40951;SDS011;26682;51.660;19.338;2022-09-09T05:32:04;60.50;;;33.63;;
40951;SDS011;26682;51.660;19.338;2022-09-09T05:33:51;66.85;;;34.58;;
40951;SDS011;26682;51.660;19.338;2022-09-09T05:35:37;57.35;;;32.72;;
40951;SDS011;26682;51.660;19.338;2022-09-09T05:37:23;56.45;;;33.15;;
40951;SDS011;26682;51.660;19.338;2022-09-09T05:39:09;57.00;;;34.22;;
40951;SDS011;26682;51.660;19.338;2022-09-09T05:40:57;49.25;;;31.73;;
40951;SDS011;26682;51.660;19.338;2022-09-09T05:42:44;52.08;;;32.85;;
40951;SDS011;26682;51.660;19.338;2022-09-09T05:44:30;50.65;;;33.17;;
40951;SDS011;26682;51.660;19.338;2022-09-09T05:46:21;50.78;;;32.58;;
40951;SDS011;26682;51.660;19.338;2022-09-09T05:48:11;46.13;;;31.83;;
40951;SDS011;26682;51.660;19.338;2022-09-09T05:49:57;47.50;;;30.98;;
40951;SDS011;26682;51.660;19.338;2022-09-09T05:51:43;42.92;;;29.52;;
40951;SDS011;26682;51.660;19.338;2022-09-09T05:53:31;44.83;;;28.65;;
40951;SDS011;26682;51.660;19.338;2022-09-09T05:55:18;36.53;;;27.30;;
40951;SDS011;26682;51.660;19.338;2022-09-09T05:57:04;37.28;;;27.13;;
40951;SDS011;26682;51.660;19.338;2022-09-09T05:58:51;38.05;;;28.42;;
40951;SDS011;26682;51.660;19.338;2022-09-09T06:00:42;31.80;;;25.38;;
40951;SDS011;26682;51.660;19.338;2022-09-09T06:02:29;32.45;;;23.95;;
40951;SDS011;26682;51.660;19.338;2022-09-09T06:04:17;31.05;;;24.67;;
40951;SDS011;26682;51.660;19.338;2022-09-09T06:06:04;27.00;;;22.73;;
40951;SDS011;26682;51.660;19.338;2022-09-09T06:07:52;26.83;;;22.80;;
40951;SDS011;26682;51.660;19.338;2022-09-09T06:09:39;28.27;;;22.23;;
40951;SDS011;26682;51.660;19.338;2022-09-09T06:11:28;25.90;;;21.67;;
40951;SDS011;26682;51.660;19.338;2022-09-09T06:13:17;26.80;;;20.80;;
40951;SDS011;26682;51.660;19.338;2022-09-09T06:15:03;22.98;;;20.58;;
40951;SDS011;26682;51.660;19.338;2022-09-09T06:16:51;23.27;;;20.85;;
40951;SDS011;26682;51.660;19.338;2022-09-09T06:18:41;21.50;;;19.13;;
40951;SDS011;26682;51.660;19.338;2022-09-09T06:20:27;22.35;;;19.67;;
40951;SDS011;26682;51.660;19.338;2022-09-09T06:22:16;20.60;;;18.42;;
40951;SDS011;26682;51.660;19.338;2022-09-09T06:24:03;20.10;;;16.67;;
40951;SDS011;26682;51.660;19.338;2022-09-09T06:25:50;20.02;;;17.98;;
40951;SDS011;26682;51.660;19.338;2022-09-09T06:27:37;17.88;;;16.20;;
40951;SDS011;26682;51.660;19.338;2022-09-09T06:29:24;18.27;;;15.60;;
40951;SDS011;26682;51.660;19.338;2022-09-09T06:31:11;21.98;;;19.20;;
40951;SDS011;26682;51.660;19.338;2022-09-09T06:33:00;30.08;;;27.38;;
40951;SDS011;26682;51.660;19.338;2022-09-09T06:34:46;28.88;;;25.95;;
40951;SDS011;26682;51.660;19.338;2022-09-09T06:36:36;22.25;;;20.02;;
40951;SDS011;26682;51.660;19.338;2022-09-09T06:38:23;19.77;;;15.15;;
40951;SDS011;26682;51.660;19.338;2022-09-09T06:40:09;20.83;;;16.85;;
40951;SDS011;26682;51.660;19.338;2022-09-09T06:41:56;40.25;;;36.67;;
40951;SDS011;26682;51.660;19.338;2022-09-09T06:44:22;44.53;;;40.73;;
40951;SDS011;26682;51.660;19.338;2022-09-09T06:46:09;45.08;;;41.08;;
40951;SDS011;26682;51.660;19.338;2022-09-09T06:47:57;34.00;;;30.58;;
40951;SDS011;26682;51.660;19.338;2022-09-09T06:49:43;20.92;;;18.73;;
40951;SDS011;26682;51.660;19.338;2022-09-09T06:51:31;16.17;;;14.20;;
40951;SDS011;26682;51.660;19.338;2022-09-09T06:53:21;15.65;;;13.43;;
40951;SDS011;26682;51.660;19.338;2022-09-09T06:55:08;14.65;;;13.15;;
40951;SDS011;26682;51.660;19.338;2022-09-09T06:56:56;17.17;;;14.48;;
40951;SDS011;26682;51.660;19.338;2022-09-09T06:58:43;16.33;;;13.10;;
40951;SDS011;26682;51.660;19.338;2022-09-09T07:00:33;18.10;;;13.52;;
40951;SDS011;26682;51.660;19.338;2022-09-09T07:02:19;22.42;;;18.67;;
40951;SDS011;26682;51.660;19.338;2022-09-09T07:04:06;14.20;;;11.65;;
40951;SDS011;26682;51.660;19.338;2022-09-09T07:05:54;18.17;;;12.35;;
40951;SDS011;26682;51.660;19.338;2022-09-09T07:07:42;14.50;;;13.07;;
40951;SDS011;26682;51.660;19.338;2022-09-09T07:09:30;11.65;;;10.50;;
40951;SDS011;26682;51.660;19.338;2022-09-09T07:11:18;12.73;;;11.20;;
40951;SDS011;26682;51.660;19.338;2022-09-09T07:13:05;13.48;;;10.10;;
40951;SDS011;26682;51.660;19.338;2022-09-09T07:14:53;13.68;;;10.20;;
40951;SDS011;26682;51.660;19.338;2022-09-09T07:16:39;13.57;;;10.50;;
40951;SDS011;26682;51.660;19.338;2022-09-09T07:18:26;15.80;;;10.82;;
40951;SDS011;26682;51.660;19.338;2022-09-09T07:20:13;16.40;;;14.95;;
40951;SDS011;26682;51.660;19.338;2022-09-09T07:22:00;30.85;;;28.30;;
40951;SDS011;26682;51.660;19.338;2022-09-09T07:23:50;40.38;;;37.00;;
40951;SDS011;26682;51.660;19.338;2022-09-09T07:25:36;44.13;;;40.55;;
40951;SDS011;26682;51.660;19.338;2022-09-09T07:27:22;13.13;;;11.80;;
40951;SDS011;26682;51.660;19.338;2022-09-09T07:29:09;14.35;;;11.43;;
40951;SDS011;26682;51.660;19.338;2022-09-09T07:31:01;11.82;;;10.60;;
40951;SDS011;26682;51.660;19.338;2022-09-09T07:32:50;11.60;;;10.43;;
40951;SDS011;26682;51.660;19.338;2022-09-09T07:34:37;13.32;;;10.90;;
40951;SDS011;26682;51.660;19.338;2022-09-09T07:36:24;12.23;;;10.95;;
40951;SDS011;26682;51.660;19.338;2022-09-09T07:38:13;12.30;;;11.13;;
40951;SDS011;26682;51.660;19.338;2022-09-09T07:40:01;18.23;;;16.42;;
40951;SDS011;26682;51.660;19.338;2022-09-09T07:41:50;28.42;;;26.23;;
40951;SDS011;26682;51.660;19.338;2022-09-09T07:43:39;31.77;;;28.80;;
40951;SDS011;26682;51.660;19.338;2022-09-09T07:45:27;28.17;;;25.65;;
40951;SDS011;26682;51.660;19.338;2022-09-09T07:47:13;34.22;;;31.55;;
40951;SDS011;26682;51.660;19.338;2022-09-09T07:49:05;40.40;;;36.35;;
40951;SDS011;26682;51.660;19.338;2022-09-09T07:51:02;26.20;;;23.90;;
40951;SDS011;26682;51.660;19.338;2022-09-09T07:52:51;38.80;;;35.72;;
40951;SDS011;26682;51.660;19.338;2022-09-09T07:54:39;25.27;;;23.38;;
40951;SDS011;26682;51.660;19.338;2022-09-09T07:56:26;42.03;;;38.47;;
40951;SDS011;26682;51.660;19.338;2022-09-09T07:58:13;28.27;;;25.38;;
40951;SDS011;26682;51.660;19.338;2022-09-09T07:59:59;28.48;;;26.33;;
40951;SDS011;26682;51.660;19.338;2022-09-09T08:01:46;23.40;;;21.20;;
40951;SDS011;26682;51.660;19.338;2022-09-09T08:03:39;15.35;;;11.60;;
40951;SDS011;26682;51.660;19.338;2022-09-09T08:05:25;18.63;;;16.55;;
40951;SDS011;26682;51.660;19.338;2022-09-09T08:07:12;31.17;;;28.77;;
40951;SDS011;26682;51.660;19.338;2022-09-09T08:09:05;13.52;;;12.38;;
40951;SDS011;26682;51.660;19.338;2022-09-09T08:10:53;12.20;;;11.10;;
40951;SDS011;26682;51.660;19.338;2022-09-09T08:12:39;14.50;;;12.02;;
40951;SDS011;26682;51.660;19.338;2022-09-09T08:14:26;11.00;;;10.05;;
40951;SDS011;26682;51.660;19.338;2022-09-09T08:16:13;19.33;;;17.55;;
40951;SDS011;26682;51.660;19.338;2022-09-09T08:18:02;17.40;;;16.00;;
40951;SDS011;26682;51.660;19.338;2022-09-09T08:19:49;20.17;;;18.15;;
40951;SDS011;26682;51.660;19.338;2022-09-09T08:21:42;12.90;;;11.23;;
40951;SDS011;26682;51.660;19.338;2022-09-09T08:23:30;11.05;;;9.32;;
40951;SDS011;26682;51.660;19.338;2022-09-09T08:25:15;12.57;;;9.98;;
40951;SDS011;26682;51.660;19.338;2022-09-09T08:27:01;22.75;;;20.63;;
40951;SDS011;26682;51.660;19.338;2022-09-09T08:28:49;24.45;;;22.45;;
40951;SDS011;26682;51.660;19.338;2022-09-09T08:30:37;40.20;;;36.38;;
40951;SDS011;26682;51.660;19.338;2022-09-09T08:32:24;34.60;;;31.52;;
40951;SDS011;26682;51.660;19.338;2022-09-09T08:34:11;20.65;;;9.73;;
40951;SDS011;26682;51.660;19.338;2022-09-09T08:35:58;9.98;;;9.07;;
40951;SDS011;26682;51.660;19.338;2022-09-09T08:37:44;10.57;;;8.40;;
40951;SDS011;26682;51.660;19.338;2022-09-09T08:39:30;20.17;;;13.07;;
40951;SDS011;26682;51.660;19.338;2022-09-09T08:41:32;9.30;;;8.52;;
40951;SDS011;26682;51.660;19.338;2022-09-09T08:43:39;12.68;;;7.50;;
40951;SDS011;26682;51.660;19.338;2022-09-09T08:45:34;7.55;;;6.55;;
40951;SDS011;26682;51.660;19.338;2022-09-09T08:49:53;7.75;;;7.15;;
40951;SDS011;26682;51.660;19.338;2022-09-09T08:52:03;11.07;;;7.25;;
40951;SDS011;26682;51.660;19.338;2022-09-09T08:53:59;9.70;;;6.88;;
40951;SDS011;26682;51.660;19.338;2022-09-09T08:57:45;13.32;;;7.50;;
40951;SDS011;26682;51.660;19.338;2022-09-09T08:59:32;7.70;;;6.80;;
40951;SDS011;26682;51.660;19.338;2022-09-09T09:01:23;7.07;;;6.30;;
40951;SDS011;26682;51.660;19.338;2022-09-09T09:05:57;7.03;;;5.63;;
40951;SDS011;26682;51.660;19.338;2022-09-09T09:09:58;5.40;;;4.55;;
40951;SDS011;26682;51.660;19.338;2022-09-09T09:13:53;4.78;;;3.90;;
40951;SDS011;26682;51.660;19.338;2022-09-09T09:15:50;4.05;;;3.65;;
40951;SDS011;26682;51.660;19.338;2022-09-09T09:17:41;4.78;;;3.58;;
40951;SDS011;26682;51.660;19.338;2022-09-09T09:19:29;8.68;;;3.78;;
40951;SDS011;26682;51.660;19.338;2022-09-09T09:21:20;3.35;;;3.05;;
40951;SDS011;26682;51.660;19.338;2022-09-09T09:23:20;4.32;;;3.03;;
40951;SDS011;26682;51.660;19.338;2022-09-09T09:27:16;10.48;;;3.58;;
40951;SDS011;26682;51.660;19.338;2022-09-09T09:29:17;4.28;;;2.88;;
40951;SDS011;26682;51.660;19.338;2022-09-09T09:31:09;3.28;;;2.80;;
40951;SDS011;26682;51.660;19.338;2022-09-09T09:32:59;6.28;;;3.20;;
40951;SDS011;26682;51.660;19.338;2022-09-09T09:35:12;3.33;;;2.78;;
40951;SDS011;26682;51.660;19.338;2022-09-09T09:36:59;3.47;;;3.17;;
40951;SDS011;26682;51.660;19.338;2022-09-09T09:38:53;3.85;;;3.38;;
40951;SDS011;26682;51.660;19.338;2022-09-09T09:43:00;4.10;;;3.80;;
40951;SDS011;26682;51.660;19.338;2022-09-09T09:44:48;4.57;;;4.00;;
40951;SDS011;26682;51.660;19.338;2022-09-09T09:46:37;4.63;;;4.10;;
40951;SDS011;26682;51.660;19.338;2022-09-09T09:48:30;4.75;;;4.35;;
40951;SDS011;26682;51.660;19.338;2022-09-09T09:50:18;5.25;;;4.40;;
40951;SDS011;26682;51.660;19.338;2022-09-09T09:52:06;5.43;;;4.93;;
40951;SDS011;26682;51.660;19.338;2022-09-09T09:54:49;6.20;;;5.60;;
40951;SDS011;26682;51.660;19.338;2022-09-09T09:56:17;8.80;;;6.93;;
40951;SDS011;26682;51.660;19.338;2022-09-09T09:58:14;8.20;;;7.40;;
40951;SDS011;26682;51.660;19.338;2022-09-09T10:00:03;8.55;;;6.68;;
40951;SDS011;26682;51.660;19.338;2022-09-09T10:02:36;7.45;;;6.75;;
40951;SDS011;26682;51.660;19.338;2022-09-09T10:04:27;10.90;;;7.50;;
40951;SDS011;26682;51.660;19.338;2022-09-09T10:06:15;9.23;;;7.97;;
40951;SDS011;26682;51.660;19.338;2022-09-09T10:09:57;8.13;;;7.43;;
40951;SDS011;26682;51.660;19.338;2022-09-09T10:11:44;7.90;;;7.10;;
40951;SDS011;26682;51.660;19.338;2022-09-09T10:15:59;8.35;;;7.65;;
40951;SDS011;26682;51.660;19.338;2022-09-09T10:19:52;8.18;;;7.38;;
40951;SDS011;26682;51.660;19.338;2022-09-09T10:25:58;8.43;;;7.63;;
40951;SDS011;26682;51.660;19.338;2022-09-09T10:36:06;8.23;;;7.40;;
40951;SDS011;26682;51.660;19.338;2022-09-09T10:39:48;7.60;;;6.90;;
40951;SDS011;26682;51.660;19.338;2022-09-09T10:42:07;7.20;;;6.50;;
40951;SDS011;26682;51.660;19.338;2022-09-09T10:44:05;7.75;;;6.97;;
40951;SDS011;26682;51.660;19.338;2022-09-09T10:48:18;8.02;;;6.93;;
40951;SDS011;26682;51.660;19.338;2022-09-09T10:57:12;7.40;;;6.80;;
40951;SDS011;26682;51.660;19.338;2022-09-09T10:59:08;6.85;;;5.90;;
40951;SDS011;26682;51.660;19.338;2022-09-09T11:01:10;7.82;;;5.30;;
40951;SDS011;26682;51.660;19.338;2022-09-09T11:03:09;6.93;;;5.28;;
40951;SDS011;26682;51.660;19.338;2022-09-09T11:07:05;8.23;;;6.03;;
40951;SDS011;26682;51.660;19.338;2022-09-09T11:08:54;6.10;;;5.30;;
40951;SDS011;26682;51.660;19.338;2022-09-09T11:12:56;5.45;;;4.95;;
40951;SDS011;26682;51.660;19.338;2022-09-09T11:16:53;5.60;;;5.10;;
40951;SDS011;26682;51.660;19.338;2022-09-09T11:21:23;5.45;;;5.05;;
40951;SDS011;26682;51.660;19.338;2022-09-09T11:23:15;6.13;;;5.55;;
40951;SDS011;26682;51.660;19.338;2022-09-09T11:27:00;6.70;;;6.00;;
40951;SDS011;26682;51.660;19.338;2022-09-09T11:37:44;5.25;;;4.57;;
40951;SDS011;26682;51.660;19.338;2022-09-09T11:40:35;5.72;;;5.03;;
40951;SDS011;26682;51.660;19.338;2022-09-09T11:44:08;5.60;;;4.82;;
40951;SDS011;26682;51.660;19.338;2022-09-09T11:46:02;7.07;;;4.90;;
40951;SDS011;26682;51.660;19.338;2022-09-09T11:47:56;5.60;;;4.93;;
40951;SDS011;26682;51.660;19.338;2022-09-09T11:49:44;5.53;;;4.72;;
40951;SDS011;26682;51.660;19.338;2022-09-09T11:51:32;4.93;;;4.43;;
40951;SDS011;26682;51.660;19.338;2022-09-09T11:53:20;6.63;;;4.57;;
40951;SDS011;26682;51.660;19.338;2022-09-09T11:55:10;6.40;;;4.60;;
40951;SDS011;26682;51.660;19.338;2022-09-09T11:57:02;5.60;;;4.15;;
40951;SDS011;26682;51.660;19.338;2022-09-09T12:00:48;4.78;;;4.13;;
40951;SDS011;26682;51.660;19.338;2022-09-09T12:02:35;6.03;;;4.10;;
40951;SDS011;26682;51.660;19.338;2022-09-09T12:08:27;4.17;;;3.83;;
40951;SDS011;26682;51.660;19.338;2022-09-09T12:10:52;4.57;;;3.90;;
40951;SDS011;26682;51.660;19.338;2022-09-09T12:12:33;4.22;;;3.67;;
40951;SDS011;26682;51.660;19.338;2022-09-09T12:14:35;6.22;;;5.28;;
40951;SDS011;26682;51.660;19.338;2022-09-09T12:16:34;6.43;;;3.50;;
40951;SDS011;26682;51.660;19.338;2022-09-09T12:18:24;3.40;;;3.15;;
40951;SDS011;26682;51.660;19.338;2022-09-09T12:20:21;5.75;;;3.65;;
40951;SDS011;26682;51.660;19.338;2022-09-09T12:24:35;6.97;;;4.30;;
40951;SDS011;26682;51.660;19.338;2022-09-09T12:28:25;5.22;;;3.65;;
40951;SDS011;26682;51.660;19.338;2022-09-09T12:30:16;4.03;;;3.63;;
40951;SDS011;26682;51.660;19.338;2022-09-09T12:32:07;4.35;;;3.53;;
40951;SDS011;26682;51.660;19.338;2022-09-09T12:34:02;5.15;;;3.80;;
40951;SDS011;26682;51.660;19.338;2022-09-09T12:35:56;4.40;;;4.00;;
40951;SDS011;26682;51.660;19.338;2022-09-09T12:37:49;6.50;;;4.00;;
40951;SDS011;26682;51.660;19.338;2022-09-09T12:39:42;5.03;;;3.38;;
40951;SDS011;26682;51.660;19.338;2022-09-09T12:41:33;3.72;;;3.38;;
40951;SDS011;26682;51.660;19.338;2022-09-09T12:43:19;3.45;;;3.15;;
40951;SDS011;26682;51.660;19.338;2022-09-09T12:45:20;5.82;;;3.45;;
40951;SDS011;26682;51.660;19.338;2022-09-09T12:47:11;3.65;;;3.15;;